Time;durP1;ratioP1;P1;durP2;ratioP2;P2;SDS_P1;SDS_P2;PMS_P1;PMS_P2;Temp;Humidity;BMP_temperature;BMP_pressure;BME280_temperature;BME280_humidity;BME280_pressure;Samples;Min_cycle;Max_cycle;Signal;HPM_P1;HPM_P2
2022/10/28 00:00:52;;;;;;;1.25;0.93;;;13.70;99.90;;;;;;4905633;29;20451;-73
2022/10/28 00:03:18;;;;;;;1.30;1.00;;;13.30;99.90;;;;;;4890007;29;20084;-73
2022/10/28 00:05:44;;;;;;;1.40;1.10;;;13.70;99.90;;;;;;4884427;29;21502;-73
2022/10/28 00:08:10;;;;;;;2.25;1.55;;;13.40;99.90;;;;;;4891398;29;20077;-73
2022/10/28 00:10:36;;;;;;;;;;;13.70;99.90;;;;;;4868570;29;20041;-73
2022/10/28 00:13:02;;;;;;;2.17;1.30;;;13.80;99.90;;;;;;4904493;29;19926;-73
2022/10/28 00:15:27;;;;;;;1.58;1.00;;;14.10;99.90;;;;;;4886553;29;20051;-73
2022/10/28 00:17:53;;;;;;;1.27;1.10;;;13.70;99.90;;;;;;4905012;29;21295;-73
2022/10/28 00:20:19;;;;;;;2.22;1.30;;;13.90;99.90;;;;;;4888581;29;20041;-73
2022/10/28 00:22:44;;;;;;;1.27;1.10;;;13.90;99.90;;;;;;4889996;29;20131;-73
2022/10/28 00:25:10;;;;;;;1.10;0.80;;;14.00;99.90;;;;;;4889033;29;20044;-73
2022/10/28 00:27:36;;;;;;;1.75;1.08;;;14.10;99.90;;;;;;4889372;29;20094;-73
2022/10/28 00:30:03;;;;;;;1.10;0.80;;;14.10;99.90;;;;;;4887498;29;20214;-73
2022/10/28 00:32:29;;;;;;;1.48;0.80;;;14.20;99.90;;;;;;4872695;29;20361;-73
2022/10/28 00:34:55;;;;;;;1.30;0.95;;;14.70;99.90;;;;;;4875209;29;20111;-73
2022/10/28 00:37:21;;;;;;;1.67;1.00;;;14.80;99.90;;;;;;4858546;29;20495;-73
2022/10/28 00:39:46;;;;;;;1.00;0.90;;;14.50;99.90;;;;;;4889291;29;20076;-73
2022/10/28 00:42:17;;;;;;;1.20;0.93;;;14.40;99.90;;;;;;4872595;29;20186;-72
2022/10/28 00:45:01;;;;;;;1.63;0.70;;;14.30;99.90;;;;;;4885037;29;20074;-73
2022/10/28 00:47:29;;;;;;;1.10;0.90;;;14.80;99.90;;;;;;4864059;29;20048;-73
2022/10/28 00:50:13;;;;;;;1.60;1.00;;;14.40;99.90;;;;;;4887744;29;20059;-74
2022/10/28 00:52:40;;;;;;;2.22;1.27;;;14.80;99.90;;;;;;4888360;29;20044;-73
2022/10/28 00:55:07;;;;;;;2.10;1.20;;;15.00;99.90;;;;;;4871586;29;20116;-73
2022/10/28 00:57:35;;;;;;;1.98;1.17;;;15.00;99.90;;;;;;4887884;29;20036;-73
2022/10/28 01:00:03;;;;;;;1.10;1.00;;;15.10;99.90;;;;;;4889479;29;20131;-73
2022/10/28 01:02:29;;;;;;;1.52;1.20;;;14.70;99.90;;;;;;4887791;29;20488;-73
2022/10/28 01:04:54;;;;;;;2.85;1.40;;;15.20;99.90;;;;;;4889159;29;20044;-73
2022/10/28 01:07:21;;;;;;;1.60;1.25;;;14.80;99.90;;;;;;4892914;29;20048;-74
2022/10/28 01:09:47;;;;;;;1.75;1.10;;;14.90;99.90;;;;;;4893469;29;20044;-73
2022/10/28 01:12:34;;;;;;;1.80;1.17;;;15.30;99.90;;;;;;4892838;29;20571;-73
2022/10/28 01:15:08;;;;;;;1.52;1.17;;;14.80;99.90;;;;;;4889412;29;20516;-72
2022/10/28 01:17:51;;;;;;;1.30;0.85;;;14.80;99.90;;;;;;4892568;29;20064;-72
2022/10/28 01:20:45;;;;;;;1.25;0.80;;;15.30;99.90;;;;;;4877333;29;20052;-72
2022/10/28 01:23:20;;;;;;;1.00;0.90;;;14.90;99.90;;;;;;4891944;29;20057;-73
2022/10/28 01:25:54;;;;;;;1.30;1.00;;;14.90;99.90;;;;;;4893805;29;20056;-74
2022/10/28 01:28:41;;;;;;;1.67;0.98;;;15.30;99.90;;;;;;4892376;29;20059;-73
2022/10/28 01:31:26;;;;;;;1.95;1.20;;;15.30;99.90;;;;;;4909454;29;20076;-72
2022/10/28 01:33:58;;;;;;;1.00;0.80;;;15.20;99.90;;;;;;4892049;29;20044;-73
2022/10/28 01:37:00;;;;;;;1.15;0.90;;;14.70;99.90;;;;;;4892997;29;20496;-73
2022/10/28 01:39:53;;;;;;;0.80;0.80;;;14.60;99.90;;;;;;4844178;29;20060;-73
2022/10/28 01:42:24;;;;;;;1.00;0.80;;;14.80;99.90;;;;;;4891849;29;20052;-73
2022/10/28 01:45:20;;;;;;;1.90;1.02;;;15.00;99.90;;;;;;4890313;29;20063;-73
2022/10/28 01:47:54;;;;;;;1.08;0.80;;;14.80;99.90;;;;;;4869881;29;20060;-73
2022/10/28 01:50:36;;;;;;;1.33;1.00;;;14.30;99.90;;;;;;4891642;29;20044;-73
2022/10/28 01:53:08;;;;;;;1.20;0.90;;;14.30;99.90;;;;;;4907781;29;20092;-73
2022/10/28 01:55:38;;;;;;;2.80;1.20;;;14.60;99.90;;;;;;4907994;29;20036;-73
2022/10/28 01:58:06;;;;;;;2.33;1.17;;;14.50;99.90;;;;;;4891466;29;20056;-73
2022/10/28 02:00:33;;;;;;;1.33;1.00;;;14.10;99.90;;;;;;4907209;29;20096;-73
2022/10/28 02:02:58;;;;;;;1.67;1.00;;;14.40;99.90;;;;;;4892445;29;20075;-72
2022/10/28 02:05:44;;;;;;;1.95;1.30;;;13.90;99.90;;;;;;4893002;29;20461;-72
2022/10/28 02:08:19;;;;;;;4.32;1.50;;;13.80;99.90;;;;;;4891383;29;20052;-73
2022/10/28 02:11:13;;;;;;;1.55;1.30;;;14.00;99.90;;;;;;4892295;29;20405;-73
2022/10/28 02:14:06;;;;;;;2.15;1.15;;;14.10;99.90;;;;;;4890956;29;20108;-73
2022/10/28 02:16:50;;;;;;;1.45;1.00;;;13.60;99.90;;;;;;4891837;29;20067;-73
2022/10/28 02:19:42;;;;;;;1.42;0.98;;;13.90;99.90;;;;;;4891018;29;20083;-73
2022/10/28 02:22:35;;;;;;;0.85;0.75;;;13.70;99.90;;;;;;4894316;29;20044;-73
2022/10/28 02:25:27;;;;;;;1.42;1.10;;;13.20;99.90;;;;;;4894273;29;20048;-73
2022/10/28 02:28:03;;;;;;;1.23;1.00;;;13.20;99.90;;;;;;4908007;29;20052;-73
2022/10/28 02:30:52;;;;;;;2.13;1.30;;;13.20;99.90;;;;;;4894533;29;20063;-73
2022/10/28 02:33:22;;;;;;;1.92;1.40;;;13.60;99.90;;;;;;4879393;29;20059;-73
2022/10/28 02:35:56;;;;;;;1.63;0.85;;;13.70;99.90;;;;;;4894816;29;20099;-73
2022/10/28 02:38:37;;;;;;;1.40;1.20;;;13.80;99.90;;;;;;4905542;29;20051;-73
2022/10/28 02:41:28;;;;;;;1.40;1.20;;;13.40;99.90;;;;;;4911146;29;20074;-73
2022/10/28 02:43:58;;;;;;;1.80;1.55;;;13.90;99.90;;;;;;4880867;29;20075;-73
2022/10/28 02:46:28;;;;;;;1.98;1.48;;;13.40;99.90;;;;;;4878585;29;20053;-74
2022/10/28 02:48:57;;;;;;;2.67;1.40;;;13.80;99.90;;;;;;4884414;29;20040;-73
2022/10/28 02:51:29;;;;;;;1.48;1.30;;;13.50;99.90;;;;;;4911532;29;20036;-73
2022/10/28 02:54:03;;;;;;;2.28;1.40;;;14.10;99.90;;;;;;4881893;29;20068;-73
2022/10/28 02:56:33;;;;;;;2.00;1.50;;;13.80;99.90;;;;;;4894125;29;20052;-73
2022/10/28 02:58:59;;;;;;;1.88;1.30;;;13.60;99.90;;;;;;4895766;29;20449;-73
2022/10/28 03:01:25;;;;;;;1.67;1.20;;;14.10;99.90;;;;;;4896021;29;20059;-78
2022/10/28 03:03:50;;;;;;;2.03;1.30;;;13.50;99.90;;;;;;4880075;29;20059;-77
2022/10/28 03:06:16;;;;;;;2.00;1.00;;;13.50;99.90;;;;;;4892661;29;20052;-77
2022/10/28 03:08:42;;;;;;;1.00;0.90;;;13.60;99.90;;;;;;4887716;29;20163;-78
2022/10/28 03:11:08;;;;;;;1.58;1.10;;;14.00;99.90;;;;;;4912297;29;20127;-78
2022/10/28 03:13:33;;;;;;;1.50;1.17;;;14.10;99.90;;;;;;4895716;29;20103;-78
2022/10/28 03:15:59;;;;;;;1.77;1.27;;;13.40;99.90;;;;;;4893787;29;20059;-78
2022/10/28 03:18:25;;;;;;;1.60;1.13;;;14.10;99.90;;;;;;4911033;29;20044;-78
2022/10/28 03:20:51;;;;;;;1.75;1.27;;;14.00;99.90;;;;;;4893960;29;20452;-78
2022/10/28 03:23:16;;;;;;;2.70;1.13;;;13.50;99.90;;;;;;4891184;29;20173;-78
2022/10/28 03:25:42;;;;;;;1.33;1.23;;;13.80;99.90;;;;;;4890732;29;20048;-78
2022/10/28 03:28:07;;;;;;;1.88;1.20;;;14.10;99.90;;;;;;4891935;29;20461;-78
2022/10/28 03:30:33;;;;;;;1.55;1.17;;;14.10;99.90;;;;;;4875792;29;20480;-78
2022/10/28 03:32:59;;;;;;;1.92;1.13;;;13.80;99.90;;;;;;4891639;29;20577;-78
2022/10/28 03:35:24;;;;;;;1.20;1.00;;;13.90;99.90;;;;;;4887874;29;20521;-78
2022/10/28 03:37:50;;;;;;;1.90;1.10;;;13.50;99.90;;;;;;4875899;29;20051;-78
2022/10/28 03:40:16;;;;;;;1.67;1.35;;;13.90;99.90;;;;;;4875120;29;20131;-79
2022/10/28 03:42:41;;;;;;;1.98;1.17;;;13.60;99.90;;;;;;4890873;29;20445;-78
2022/10/28 03:45:08;;;;;;;2.38;1.40;;;13.50;99.90;;;;;;4891848;29;20067;-78
2022/10/28 03:47:34;;;;;;;2.08;1.13;;;13.90;99.90;;;;;;4891757;29;20048;-78
2022/10/28 03:50:00;;;;;;;1.77;1.42;;;13.50;99.90;;;;;;4892834;29;20044;-78
2022/10/28 03:52:26;;;;;;;2.22;1.60;;;13.40;99.90;;;;;;4905878;29;20690;-78
2022/10/28 03:54:52;;;;;;;2.35;1.50;;;13.70;99.90;;;;;;4889687;29;20044;-78
2022/10/28 03:57:17;;;;;;;1.85;1.42;;;14.10;99.90;;;;;;4890761;29;20153;-78
2022/10/28 03:59:43;;;;;;;4.13;1.58;;;13.40;99.90;;;;;;4891121;29;20048;-78
2022/10/28 04:02:09;;;;;;;1.58;1.00;;;13.40;99.90;;;;;;4890455;29;20056;-78
2022/10/28 04:04:35;;;;;;;1.75;1.17;;;14.10;99.90;;;;;;4906191;29;20052;-78
2022/10/28 04:07:01;;;;;;;2.30;1.20;;;13.50;99.90;;;;;;4888752;29;20059;-78
2022/10/28 04:09:27;;;;;;;1.80;1.35;;;13.40;99.90;;;;;;4890736;29;20044;-78
2022/10/28 04:11:53;;;;;;;;;;;14.00;99.90;;;;;;4892430;29;20271;-77
2022/10/28 04:14:18;;;;;;;1.27;1.00;;;13.40;99.90;;;;;;4860081;29;20018;-77
2022/10/28 04:16:44;;;;;;;1.48;1.10;;;13.90;99.90;;;;;;4897364;29;20152;-78
2022/10/28 04:19:09;;;;;;;1.50;1.10;;;13.50;99.90;;;;;;4883681;29;20055;-78
2022/10/28 04:21:36;;;;;;;2.80;1.27;;;13.40;99.90;;;;;;4891229;29;20056;-78
2022/10/28 04:24:01;;;;;;;;;;;13.50;99.90;;;;;;4901694;29;20107;-79
2022/10/28 04:26:29;;;;;;;2.75;1.80;;;13.70;99.90;;;;;;4920746;29;19931;-79
2022/10/28 04:28:55;;;;;;;2.00;1.40;;;13.50;99.90;;;;;;4921532;29;20185;-77
2022/10/28 04:31:20;;;;;;;2.38;1.50;;;14.20;99.90;;;;;;4905364;29;20218;-79
2022/10/28 04:33:46;;;;;;;2.60;1.75;;;13.80;99.90;;;;;;4894698;29;20092;-72
2022/10/28 04:36:11;;;;;;;1.73;1.30;;;14.20;99.90;;;;;;4875550;29;20055;-73
2022/10/28 04:38:37;;;;;;;1.77;1.27;;;13.60;99.90;;;;;;4874018;29;20044;-72
2022/10/28 04:41:03;;;;;;;1.45;1.20;;;14.00;99.90;;;;;;4888848;29;20047;-73
2022/10/28 04:43:29;;;;;;;2.20;1.38;;;13.60;99.90;;;;;;4891177;29;20515;-73
2022/10/28 04:45:54;;;;;;;2.67;1.55;;;13.50;99.90;;;;;;4892123;29;20048;-73
2022/10/28 04:48:20;;;;;;;2.90;1.90;;;13.70;99.90;;;;;;4892609;29;21711;-73
2022/10/28 04:50:46;;;;;;;3.42;1.90;;;14.10;99.90;;;;;;4909453;29;20404;-73
2022/10/28 04:53:12;;;;;;;3.28;2.00;;;14.00;99.90;;;;;;4898057;29;20036;-73
2022/10/28 04:55:38;;;;;;;2.38;2.05;;;13.40;99.90;;;;;;4900350;29;20740;-79
2022/10/28 04:58:04;;;;;;;3.53;2.22;;;13.40;99.90;;;;;;4895464;29;20127;-79
2022/10/28 05:00:30;;;;;;;3.30;2.20;;;14.00;99.90;;;;;;4909555;29;20163;-79
2022/10/28 05:02:56;;;;;;;3.55;2.40;;;14.00;99.90;;;;;;4909253;29;20036;-78
2022/10/28 05:05:21;;;;;;;3.20;2.08;;;13.80;99.90;;;;;;4895057;29;20051;-79
2022/10/28 05:07:47;;;;;;;3.50;2.00;;;13.70;99.90;;;;;;4876642;29;20049;-81
2022/10/28 05:10:16;;;;;;;3.90;2.33;;;13.50;99.90;;;;;;4908734;29;20040;-82
2022/10/28 05:12:43;;;;;;;3.25;1.90;;;13.30;99.90;;;;;;4894772;29;20044;-81
2022/10/28 05:15:10;;;;;;;3.85;2.33;;;13.90;99.90;;;;;;4895094;29;20036;-79
2022/10/28 05:17:44;;;;;;;3.00;1.90;;;13.80;99.90;;;;;;4893937;29;20088;-80
2022/10/28 05:20:12;;;;;;;3.28;1.85;;;13.90;99.90;;;;;;4896450;29;20067;-80
2022/10/28 05:22:43;;;;;;;2.95;2.30;;;14.00;99.90;;;;;;4892804;29;20056;-79
2022/10/28 05:25:09;;;;;;;2.70;1.90;;;14.00;99.90;;;;;;4907881;29;20048;-80
2022/10/28 05:27:35;;;;;;;3.53;2.40;;;13.60;99.90;;;;;;4893303;29;20036;-80
2022/10/28 05:30:00;;;;;;;5.13;2.17;;;14.10;99.90;;;;;;4875380;29;20071;-79
2022/10/28 05:32:26;;;;;;;2.85;1.90;;;14.10;99.90;;;;;;4900155;29;20040;-79
2022/10/28 05:34:51;;;;;;;3.28;2.40;;;13.40;99.90;;;;;;4899459;29;20202;-80
2022/10/28 05:37:17;;;;;;;3.05;2.20;;;13.40;99.90;;;;;;4909906;29;20063;-80
2022/10/28 05:39:43;;;;;;;4.68;1.95;;;13.30;99.90;;;;;;4884014;29;20140;-79
2022/10/28 05:42:08;;;;;;;3.90;2.75;;;13.70;99.90;;;;;;4910840;29;20044;-81
2022/10/28 05:44:34;;;;;;;2.50;1.80;;;13.40;99.90;;;;;;4896686;29;20194;-81
2022/10/28 05:47:00;;;;;;;3.25;2.10;;;13.40;99.90;;;;;;4907445;29;20064;-81
2022/10/28 05:49:25;;;;;;;3.30;2.05;;;14.00;99.90;;;;;;4911879;29;20094;-81
2022/10/28 05:51:51;;;;;;;2.78;2.20;;;14.10;99.90;;;;;;4895479;29;20033;-81
2022/10/28 05:54:17;;;;;;;3.63;1.77;;;14.20;99.90;;;;;;4889001;29;20125;-82
2022/10/28 05:56:42;;;;;;;3.00;2.10;;;14.10;99.90;;;;;;4903122;29;20119;-82
2022/10/28 05:59:08;;;;;;;3.13;1.80;;;14.10;99.90;;;;;;4908744;29;20044;-80
2022/10/28 06:01:34;;;;;;;2.65;1.85;;;13.40;99.90;;;;;;4904804;29;20048;-80
2022/10/28 06:03:59;;;;;;;2.60;1.70;;;13.80;99.90;;;;;;4871419;29;20095;-80
2022/10/28 06:06:27;;;;;;;2.40;1.63;;;13.50;99.90;;;;;;4904271;29;20059;-80
2022/10/28 06:08:53;;;;;;;2.70;1.80;;;14.00;99.90;;;;;;4909399;29;20485;-80
2022/10/28 06:11:18;;;;;;;3.08;1.85;;;14.00;99.90;;;;;;4891468;29;20100;-78
2022/10/28 06:13:44;;;;;;;2.30;1.58;;;14.00;99.90;;;;;;4920978;29;20095;-79
2022/10/28 06:16:10;;;;;;;2.22;1.58;;;13.20;99.90;;;;;;4892779;29;20122;-79
2022/10/28 06:18:35;;;;;;;2.53;1.60;;;13.70;99.90;;;;;;4893581;29;20044;-80
2022/10/28 06:21:01;;;;;;;1.50;1.17;;;13.40;99.90;;;;;;4922171;29;20040;-79
2022/10/28 06:23:28;;;;;;;1.70;1.20;;;13.40;99.90;;;;;;4902060;29;20060;-79
2022/10/28 06:25:58;;;;;;;2.17;1.27;;;13.20;99.90;;;;;;4901616;29;20134;-79
2022/10/28 06:28:24;;;;;;;2.10;1.35;;;13.10;99.90;;;;;;4916658;29;20040;-79
2022/10/28 06:30:50;;;;;;;;;;;13.90;99.90;;;;;;4902850;29;20115;-80
2022/10/28 06:33:16;;;;;;;2.75;1.80;;;13.20;99.90;;;;;;4883486;29;20005;-80
2022/10/28 06:35:41;;;;;;;2.60;2.00;;;13.20;99.90;;;;;;4910659;29;20426;-80
2022/10/28 06:38:07;;;;;;;2.10;1.60;;;13.20;99.90;;;;;;4887090;29;20127;-79
2022/10/28 06:40:33;;;;;;;2.65;1.58;;;13.80;99.90;;;;;;4883592;29;20140;-80
2022/10/28 06:42:59;;;;;;;2.20;1.40;;;13.20;99.90;;;;;;4890704;29;20050;-80
2022/10/28 06:45:29;;;;;;;2.75;1.70;;;13.80;99.90;;;;;;4898394;29;20035;-79
2022/10/28 06:48:03;;;;;;;2.17;1.48;;;14.00;99.90;;;;;;4905704;29;20382;-79
2022/10/28 06:50:29;;;;;;;2.33;1.75;;;13.80;99.90;;;;;;4884958;29;20404;-78
2022/10/28 06:52:56;;;;;;;1.48;1.20;;;13.80;99.90;;;;;;4900290;29;20051;-78
2022/10/28 06:55:22;;;;;;;2.15;1.55;;;13.40;99.90;;;;;;4894837;29;20048;-80
2022/10/28 06:57:48;;;;;;;2.53;1.50;;;13.20;99.90;;;;;;4885365;29;20122;-81
2022/10/28 07:00:14;;;;;;;2.35;1.70;;;13.30;99.90;;;;;;4884403;29;20123;-74
2022/10/28 07:02:40;;;;;;;2.20;1.90;;;13.30;99.90;;;;;;4894219;29;20387;-74
2022/10/28 07:05:07;;;;;;;2.00;1.58;;;13.40;99.90;;;;;;4895827;29;20044;-76
2022/10/28 07:07:33;;;;;;;2.42;1.63;;;13.50;99.90;;;;;;4867568;29;20518;-76
2022/10/28 07:09:58;;;;;;;2.42;1.88;;;13.80;99.90;;;;;;4883146;29;20516;-75
2022/10/28 07:12:24;;;;;;;2.90;1.90;;;13.40;99.90;;;;;;4914027;29;20043;-75
2022/10/28 07:14:50;;;;;;;3.53;2.42;;;13.80;99.90;;;;;;4913889;29;20100;-75
2022/10/28 07:17:15;;;;;;;4.53;2.38;;;14.40;99.90;;;;;;4898403;29;20075;-76
2022/10/28 07:19:41;;;;;;;2.80;2.13;;;14.20;99.90;;;;;;4899075;29;20043;-75
2022/10/28 07:22:07;;;;;;;2.90;2.03;;;14.20;99.90;;;;;;4898057;29;20127;-75
2022/10/28 07:24:32;;;;;;;4.03;2.20;;;14.40;99.90;;;;;;4898678;29;20055;-75
2022/10/28 07:26:58;;;;;;;2.97;2.33;;;14.40;99.90;;;;;;4898647;29;20389;-75
2022/10/28 07:29:24;;;;;;;2.97;2.20;;;14.50;99.90;;;;;;4899026;29;20048;-75
2022/10/28 07:31:53;;;;;;;3.30;2.20;;;13.90;99.90;;;;;;4882749;29;20575;-75
2022/10/28 07:34:20;;;;;;;3.05;2.03;;;14.50;99.90;;;;;;4898448;29;20071;-76
2022/10/28 07:36:52;;;;;;;3.00;1.80;;;14.50;99.90;;;;;;4868378;29;20091;-75
2022/10/28 07:39:18;;;;;;;3.45;2.08;;;14.20;99.90;;;;;;4898291;29;20147;-75
2022/10/28 07:41:44;;;;;;;2.05;1.80;;;14.40;99.90;;;;;;4898869;29;20159;-75
2022/10/28 07:44:10;;;;;;;3.25;1.83;;;14.30;99.90;;;;;;4882564;29;20440;-75
2022/10/28 07:46:36;;;;;;;3.17;2.10;;;14.80;99.90;;;;;;4898056;29;20048;-75
2022/10/28 07:49:02;;;;;;;2.97;1.70;;;14.80;99.90;;;;;;4899282;29;20122;-76
2022/10/28 07:51:28;;;;;;;3.95;1.50;;;14.30;99.90;;;;;;4899388;29;20084;-76
2022/10/28 07:53:57;;;;;;;5.03;1.90;;;14.40;99.90;;;;;;4897169;29;20071;-76
2022/10/28 07:56:23;;;;;;;2.97;2.13;;;14.50;99.90;;;;;;4887840;29;20484;-76
2022/10/28 07:58:49;;;;;;;2.55;1.65;;;14.60;99.90;;;;;;4897596;29;20059;-74
2022/10/28 08:01:17;;;;;;;5.20;2.00;;;15.00;99.90;;;;;;4898361;29;20044;-77
2022/10/28 08:03:43;;;;;;;3.75;1.77;;;15.10;99.90;;;;;;4882128;29;20059;-74
2022/10/28 08:06:18;;;;;;;2.33;1.88;;;15.30;99.90;;;;;;4898024;29;20044;-74
2022/10/28 08:08:46;;;;;;;2.65;1.90;;;14.90;99.90;;;;;;4881545;29;20044;-75
2022/10/28 08:11:23;;;;;;;4.18;1.73;;;15.40;99.90;;;;;;4881671;29;20063;-76
2022/10/28 08:13:50;;;;;;;3.00;1.80;;;15.40;99.90;;;;;;4880848;29;20047;-74
2022/10/28 08:16:16;;;;;;;3.35;1.63;;;15.00;99.90;;;;;;4905498;29;20055;-79
2022/10/28 08:18:42;;;;;;;3.40;2.05;;;15.60;99.90;;;;;;4898005;29;20472;-79
2022/10/28 08:21:10;;;;;;;4.20;1.80;;;15.20;99.90;;;;;;4898041;29;20051;-78
2022/10/28 08:23:37;;;;;;;2.75;1.77;;;15.60;99.90;;;;;;4866622;29;20496;-79
2022/10/28 08:26:03;;;;;;;3.25;1.90;;;15.30;99.90;;;;;;4882428;29;20048;-79
2022/10/28 08:28:29;;;;;;;4.93;2.22;;;15.30;99.90;;;;;;4882029;29;20047;-79
2022/10/28 08:31:00;;;;;;;2.60;1.75;;;15.80;99.90;;;;;;4913989;29;20047;-78
2022/10/28 08:33:25;;;;;;;2.63;1.90;;;15.40;99.90;;;;;;4897877;29;20071;-78
2022/10/28 08:35:51;;;;;;;3.40;2.20;;;15.60;99.90;;;;;;4881830;29;20048;-78
2022/10/28 08:38:17;;;;;;;3.17;2.08;;;15.90;99.90;;;;;;4881672;29;20051;-77
2022/10/28 08:40:53;;;;;;;5.65;2.70;;;15.70;99.90;;;;;;4894885;29;20079;-77
2022/10/28 08:43:44;;;;;;;3.88;2.08;;;15.90;99.90;;;;;;4897326;29;20044;-77
2022/10/28 08:46:24;;;;;;;3.45;1.98;;;16.20;99.90;;;;;;4900542;29;20056;-74
2022/10/28 08:48:50;;;;;;;3.83;2.60;;;16.10;99.90;;;;;;4881853;29;20053;-74
2022/10/28 08:51:21;;;;;;;3.67;1.85;;;16.40;99.90;;;;;;4881776;29;20431;-74
2022/10/28 08:53:53;;;;;;;3.35;2.17;;;16.50;99.90;;;;;;4896661;29;20052;-74
2022/10/28 08:56:27;;;;;;;4.18;2.45;;;16.70;99.90;;;;;;4897006;29;20132;-74
2022/10/28 08:58:57;;;;;;;3.70;2.53;;;16.50;99.90;;;;;;4897151;29;20090;-75
2022/10/28 09:01:52;;;;;;;5.05;2.85;;;16.80;99.90;;;;;;4897466;29;20131;-74
2022/10/28 09:04:33;;;;;;;4.97;2.47;;;16.70;99.90;;;;;;4869664;29;20048;-74
2022/10/28 09:07:01;;;;;;;3.33;1.80;;;17.00;99.90;;;;;;4877918;29;20047;-74
2022/10/28 09:09:27;;;;;;;3.10;1.88;;;17.00;99.90;;;;;;4893992;29;20052;-74
2022/10/28 09:12:06;;;;;;;4.35;1.95;;;17.00;99.90;;;;;;4881494;29;20046;-73
2022/10/28 09:15:04;;;;;;;2.28;1.48;;;17.10;99.90;;;;;;4896314;29;20047;-74
2022/10/28 09:17:52;;;;;;;3.03;2.10;;;16.90;99.90;;;;;;4896353;29;20048;-74
2022/10/28 09:20:18;;;;;;;;;;;17.00;99.90;;;;;;4881878;29;20114;-73
2022/10/28 09:23:04;;;;;;;3.10;1.73;;;17.20;99.90;;;;;;4891983;29;20398;-73
2022/10/28 09:26:03;;;;;;;2.38;1.70;;;17.20;99.90;;;;;;4897924;29;20056;-72
2022/10/28 09:28:42;;;;;;;2.25;1.50;;;17.20;99.90;;;;;;4884315;29;20462;-73
2022/10/28 09:31:13;;;;;;;1.85;1.40;;;17.30;99.90;;;;;;4900352;29;20072;-73
2022/10/28 09:33:57;;;;;;;3.55;1.80;;;17.30;99.90;;;;;;4899872;29;20048;-73
2022/10/28 09:36:30;;;;;;;3.30;1.83;;;17.30;99.90;;;;;;4900925;29;20056;-73
2022/10/28 09:38:57;;;;;;;2.58;1.42;;;17.40;99.90;;;;;;4900999;29;20492;-73
2022/10/28 09:41:53;;;;;;;3.00;1.40;;;17.40;99.90;;;;;;4901124;29;20402;-72
2022/10/28 09:44:35;;;;;;;2.38;1.38;;;17.40;99.90;;;;;;4884367;29;20107;-72
2022/10/28 09:47:02;;;;;;;4.03;1.63;;;17.40;99.90;;;;;;4900380;29;20056;-73
2022/10/28 09:49:33;;;;;;;2.85;1.38;;;17.50;99.90;;;;;;4900932;29;20106;-72
2022/10/28 09:52:08;;;;;;;2.15;1.35;;;17.50;99.90;;;;;;4900743;29;20400;-72
2022/10/28 09:54:45;;;;;;;2.38;1.20;;;17.60;99.90;;;;;;4900056;29;20131;-72
2022/10/28 09:57:11;;;;;;;2.53;1.50;;;17.60;99.90;;;;;;4900022;29;20047;-73
2022/10/28 09:59:37;;;;;;;2.90;1.70;;;17.50;99.90;;;;;;4900152;29;20055;-72
2022/10/28 10:02:03;;;;;;;;;;;17.60;99.90;;;;;;4901058;29;20048;-72
2022/10/28 10:04:34;;;;;;;2.58;1.45;;;17.60;99.90;;;;;;4884116;29;20018;-72
2022/10/28 10:07:09;;;;;;;3.33;1.45;;;17.70;99.90;;;;;;4892877;29;20062;-72
2022/10/28 10:09:37;;;;;;;4.28;1.95;;;17.80;99.90;;;;;;4896868;29;20121;-72
2022/10/28 10:12:08;;;;;;;3.35;1.83;;;17.90;99.90;;;;;;4915571;29;20051;-72
2022/10/28 10:14:50;;;;;;;3.38;1.80;;;17.90;99.90;;;;;;4899756;29;20443;-74
2022/10/28 10:17:40;;;;;;;5.32;2.70;;;17.90;99.90;;;;;;4903464;29;20480;-73
2022/10/28 10:20:13;;;;;;;4.30;1.85;;;18.00;99.90;;;;;;4906333;29;20501;-73
2022/10/28 10:22:44;;;;;;;3.22;2.05;;;18.10;99.90;;;;;;4885366;29;20167;-75
2022/10/28 10:25:18;;;;;;;3.20;2.10;;;18.30;99.90;;;;;;4899779;29;20056;-76
2022/10/28 10:27:56;;;;;;;3.38;2.00;;;18.30;99.90;;;;;;4899573;29;20211;-75
2022/10/28 10:30:37;;;;;;;2.92;1.60;;;18.40;99.90;;;;;;4881270;29;20048;-75
2022/10/28 10:33:03;;;;;;;4.15;2.10;;;18.40;99.90;;;;;;4885151;29;20048;-74
2022/10/28 10:35:32;;;;;;;2.75;1.70;;;18.50;99.90;;;;;;4906414;29;20040;-74
2022/10/28 10:38:00;;;;;;;3.05;1.98;;;18.40;99.90;;;;;;4896734;29;20047;-74
2022/10/28 10:40:32;;;;;;;2.80;1.73;;;18.50;99.90;;;;;;4899042;29;20215;-74
2022/10/28 10:43:17;;;;;;;3.63;1.48;;;18.60;99.90;;;;;;4897130;29;20130;-74
2022/10/28 10:46:09;;;;;;;3.45;1.60;;;18.70;99.90;;;;;;4897168;29;20723;-74
2022/10/28 10:48:35;;;;;;;2.25;1.40;;;18.80;99.90;;;;;;4883189;29;20051;-75
2022/10/28 10:51:07;;;;;;;2.15;1.42;;;18.90;99.90;;;;;;4896645;29;20511;-75
2022/10/28 10:53:34;;;;;;;1.98;1.40;;;18.90;99.90;;;;;;4908843;29;20044;-75
2022/10/28 10:56:02;;;;;;;3.47;1.30;;;19.00;99.90;;;;;;4897654;29;20044;-78
2022/10/28 10:58:45;;;;;;;4.28;1.70;;;19.00;99.90;;;;;;4905986;29;20051;-75
2022/10/28 11:01:18;;;;;;;4.75;2.03;;;19.10;99.90;;;;;;4898157;29;20059;-74
2022/10/28 11:03:52;;;;;;;3.38;1.85;;;19.20;99.90;;;;;;4898189;29;20440;-74
2022/10/28 11:06:31;;;;;;;5.45;1.80;;;19.20;99.90;;;;;;4898067;29;20458;-74
2022/10/28 11:09:01;;;;;;;5.47;2.17;;;19.20;99.90;;;;;;4881404;29;20629;-74
2022/10/28 11:11:39;;;;;;;4.05;1.55;;;19.20;99.90;;;;;;4897377;29;20048;-75
2022/10/28 11:14:08;;;;;;;2.70;1.55;;;19.10;99.90;;;;;;4885308;29;20036;-75
2022/10/28 11:16:47;;;;;;;4.07;1.40;;;19.30;99.90;;;;;;4897954;29;20397;-74
2022/10/28 11:19:31;;;;;;;3.58;1.90;;;19.60;99.90;;;;;;4894557;29;20152;-76
2022/10/28 11:22:14;;;;;;;2.72;1.67;;;19.80;99.90;;;;;;4910975;29;20103;-77
2022/10/28 11:25:39;;;;;;;3.97;1.65;;;19.80;99.90;;;;;;4894013;29;20072;-79
2022/10/28 11:28:29;;;;;;;3.13;1.67;;;19.80;99.90;;;;;;4882711;29;20080;-74
2022/10/28 11:31:06;;;;;;;3.88;1.88;;;20.10;99.90;;;;;;4895306;29;20483;-75
2022/10/28 11:33:34;;;;;;;2.60;1.55;;;20.30;99.90;;;;;;4896020;29;20052;-78
2022/10/28 11:36:28;;;;;;;2.50;1.50;;;20.50;99.90;;;;;;4893394;29;20045;-78
2022/10/28 11:39:11;;;;;;;4.88;2.15;;;20.60;99.90;;;;;;4896168;29;20040;-76
2022/10/28 11:41:43;;;;;;;3.38;1.88;;;20.70;99.90;;;;;;4895619;29;20152;-77
2022/10/28 11:44:30;;;;;;;3.58;1.77;;;20.60;99.90;;;;;;4894157;29;20392;-75
2022/10/28 11:47:09;;;;;;;4.03;1.60;;;20.70;99.90;;;;;;4894690;29;20127;-75
2022/10/28 11:49:40;;;;;;;2.38;1.55;;;20.70;99.90;;;;;;4894461;29;20060;-75
2022/10/28 11:52:19;;;;;;;2.97;1.77;;;20.80;99.90;;;;;;4895779;29;20103;-75
2022/10/28 11:55:13;;;;;;;3.90;1.75;;;20.80;99.90;;;;;;4879742;29;20048;-76
2022/10/28 11:57:52;;;;;;;4.07;1.98;;;20.80;99.90;;;;;;4887392;29;20155;-75
2022/10/28 12:00:33;;;;;;;3.05;1.80;;;21.00;99.90;;;;;;4894100;29;20049;-77
2022/10/28 12:03:23;;;;;;;4.55;1.90;;;21.10;99.90;;;;;;4886851;29;20127;-79
2022/10/28 12:06:10;;;;;;;3.88;1.80;;;21.20;99.90;;;;;;4889428;29;20119;-77
2022/10/28 12:08:42;;;;;;;5.00;1.83;;;21.30;99.90;;;;;;4906591;29;20079;-75
2022/10/28 12:11:10;;;;;;;5.82;2.05;;;21.30;99.90;;;;;;4888735;29;20044;-74
2022/10/28 12:14:11;;;;;;;4.97;2.30;;;21.10;99.90;;;;;;4892492;29;20516;-74
2022/10/28 12:16:37;;;;;;;4.90;2.38;;;21.00;99.90;;;;;;4872984;29;20063;-74
2022/10/28 12:19:13;;;;;;;8.55;3.20;;;21.00;99.90;;;;;;4894136;29;20115;-74
2022/10/28 12:21:51;;;;;;;8.15;2.70;;;20.80;99.90;;;;;;4895030;29;20490;-74
2022/10/28 12:24:21;;;;;;;4.97;2.25;;;20.70;99.90;;;;;;4890348;29;20572;-75
2022/10/28 12:26:52;;;;;;;4.57;2.35;;;20.60;99.90;;;;;;4888214;29;20056;-75
2022/10/28 12:29:28;;;;;;;5.75;2.40;;;20.40;99.90;;;;;;4893932;29;20052;-75
2022/10/28 12:32:23;;;;;;;6.63;2.22;;;20.30;99.90;;;;;;4894688;29;20112;-76
2022/10/28 12:35:02;;;;;;;5.28;1.90;;;20.30;99.90;;;;;;4894087;29;20449;-74
2022/10/28 12:37:38;;;;;;;5.85;2.33;;;20.20;99.90;;;;;;4893740;29;20095;-74
2022/10/28 12:40:16;;;;;;;5.40;2.38;;;20.10;99.90;;;;;;4895116;29;20582;-76
2022/10/28 12:42:49;;;;;;;4.10;1.92;;;20.10;99.90;;;;;;4910006;29;20099;-75
2022/10/28 12:45:17;;;;;;;4.25;2.08;;;20.00;99.90;;;;;;4894969;29;20045;-74
2022/10/28 12:48:04;;;;;;;2.28;1.65;;;20.00;99.90;;;;;;4895534;29;20052;-75
2022/10/28 12:50:51;;;;;;;2.95;1.52;;;20.00;99.90;;;;;;4894800;29;20480;-74
2022/10/28 12:53:41;;;;;;;4.03;1.80;;;19.90;99.90;;;;;;4894922;29;20120;-74
2022/10/28 12:56:14;;;;;;;4.78;1.80;;;20.00;99.90;;;;;;4893683;29;20048;-74
2022/10/28 12:59:03;;;;;;;5.15;2.10;;;19.80;99.90;;;;;;4894197;29;20044;-75
2022/10/28 13:01:30;;;;;;;4.50;1.92;;;19.90;99.90;;;;;;4897287;29;20047;-74
2022/10/28 13:03:57;;;;;;;3.67;1.67;;;19.90;99.90;;;;;;4897945;29;20083;-74
2022/10/28 13:07:13;;;;;;;4.43;2.08;;;19.90;99.90;;;;;;4898301;29;20052;-74
2022/10/28 13:09:57;;;;;;;2.95;1.77;;;20.00;99.90;;;;;;4881790;29;20060;-74
2022/10/28 13:12:41;;;;;;;6.13;2.40;;;20.10;99.90;;;;;;4912631;29;20052;-75